Casco, Michigan
Current Conditions -  °F | °C
As of 4:58 AM on Friday 19 Dec 2014 (Local Time) from KMTC Reporting Station
Overcast Overcast  
Wind Chill: 19°   Ceiling: 2300
Heat Index: 27°   Visibility: 10mi
Dew Point: 25°   Wind: 8mph
Humidity: 90%   Direction: 310°NW
Pressure: 30.2"   Gusts: NA
Location:  42.75°N, 82.67°W
Report Text: KMTC 190958Z AUTO 31007KT 10SM OVC023 M03/M04 A3020 RMK AO2 UPB0909E0926 SLP238 P0000 T10271041 $
Loading
Personal Weather Stations






























Interactive Weather Map New forecast layout! Learn more

10-Day Weather Forecast

Advertisements
Track Severe Weather on mobile